Time;durP1;ratioP1;P1;durP2;ratioP2;P2;SDS_P1;SDS_P2;PMS_P1;PMS_P2;Temp;Humidity;BMP_temperature;BMP_pressure;BME280_temperature;BME280_humidity;BME280_pressure;Samples;Min_cycle;Max_cycle;Signal;HPM_P1;HPM_P2
2023/09/13 00:02:15;;;;;;;67.50;30.70;;;17.90;99.90;;;;;;5042505;28;20576;-65
2023/09/13 00:04:44;;;;;;;64.77;30.13;;;17.90;99.90;;;;;;5044948;28;20221;-65
2023/09/13 00:07:12;;;;;;;69.07;28.80;;;17.90;99.90;;;;;;5043235;28;20298;-65
2023/09/13 00:09:41;;;;;;;77.20;32.57;;;17.80;99.90;;;;;;5041640;28;20229;-65
2023/09/13 00:12:10;;;;;;;83.17;32.80;;;17.80;99.90;;;;;;5041409;28;20192;-65
2023/09/13 00:14:38;;;;;;;67.47;30.87;;;17.80;99.90;;;;;;5036839;28;20231;-66
2023/09/13 00:17:06;;;;;;;66.93;30.13;;;17.80;99.90;;;;;;5041635;28;20220;-65
2023/09/13 00:19:37;;;;;;;78.60;34.20;;;17.70;99.90;;;;;;5041708;28;20209;-65
2023/09/13 00:22:07;;;;;;;72.37;31.23;;;17.70;99.90;;;;;;5044963;28;20216;-65
2023/09/13 00:24:35;;;;;;;72.60;32.10;;;17.70;99.90;;;;;;5043579;28;20223;-65
2023/09/13 00:27:04;;;;;;;73.20;32.43;;;17.70;99.90;;;;;;5044679;28;20983;-65
2023/09/13 00:29:33;;;;;;;82.87;33.20;;;17.70;99.90;;;;;;5043548;28;20211;-66
2023/09/13 00:32:02;;;;;;;73.70;31.87;;;17.70;99.90;;;;;;5042149;28;20233;-65
2023/09/13 00:34:31;;;;;;;69.47;31.00;;;17.70;99.90;;;;;;5039473;28;20224;-66
2023/09/13 00:37:00;;;;;;;70.47;29.80;;;17.70;99.90;;;;;;5039228;28;20231;-65
2023/09/13 00:39:29;;;;;;;63.03;29.70;;;17.70;99.90;;;;;;5036829;28;20224;-65
2023/09/13 00:41:58;;;;;;;67.97;30.10;;;17.70;99.90;;;;;;5046105;28;20188;-65
2023/09/13 00:44:26;;;;;;;60.23;27.87;;;17.70;99.90;;;;;;5040162;28;20216;-66
2023/09/13 00:46:54;;;;;;;66.30;29.90;;;17.70;99.90;;;;;;5038007;28;20221;-66
2023/09/13 00:49:23;;;;;;;74.77;30.30;;;17.70;99.90;;;;;;5045580;28;20548;-65
2023/09/13 00:51:51;;;;;;;66.10;28.80;;;17.70;99.90;;;;;;5044024;28;20521;-65
2023/09/13 00:54:21;;;;;;;63.57;27.40;;;17.80;99.90;;;;;;5043743;28;20279;-65
2023/09/13 00:56:50;;;;;;;67.60;28.23;;;17.70;99.90;;;;;;5041041;28;20185;-66
2023/09/13 00:59:18;;;;;;;71.67;28.97;;;17.70;99.90;;;;;;5045792;28;20205;-66
2023/09/13 01:01:47;;;;;;;64.33;29.23;;;17.70;99.90;;;;;;5042530;28;20216;-66
2023/09/13 01:04:16;;;;;;;62.00;27.80;;;17.70;99.90;;;;;;5038712;28;20757;-65
2023/09/13 01:06:45;;;;;;;67.70;28.60;;;17.80;99.90;;;;;;5042439;28;20263;-65
2023/09/13 01:09:14;;;;;;;70.93;29.20;;;17.80;99.90;;;;;;5038302;28;20625;-66
2023/09/13 01:11:45;;;;;;;76.00;29.10;;;17.80;99.90;;;;;;5041905;28;20195;-66
2023/09/13 01:14:13;;;;;;;69.37;28.60;;;17.80;99.90;;;;;;5043982;28;20233;-66
2023/09/13 01:16:52;;;;;;;61.63;26.93;;;17.80;99.90;;;;;;5044267;28;20220;-66
2023/09/13 01:19:38;;;;;;;61.90;26.83;;;17.80;99.90;;;;;;5039140;28;20256;-66
2023/09/13 01:22:26;;;;;;;60.10;26.87;;;17.80;99.90;;;;;;5041712;28;20225;-66
2023/09/13 01:25:17;;;;;;;71.33;27.60;;;17.80;99.90;;;;;;5042592;28;20217;-66
2023/09/13 01:27:56;;;;;;;70.23;27.87;;;17.70;99.90;;;;;;5045681;28;20760;-66
2023/09/13 01:30:28;;;;;;;68.93;27.80;;;17.70;99.90;;;;;;5046301;28;20294;-65
2023/09/13 01:32:59;;;;;;;61.10;25.80;;;17.70;99.90;;;;;;5048291;28;20199;-66
2023/09/13 01:35:27;;;;;;;67.10;26.17;;;17.70;99.90;;;;;;5042964;28;20221;-66
2023/09/13 01:37:55;;;;;;;63.70;27.67;;;17.70;99.90;;;;;;5046056;28;20211;-66
2023/09/13 01:40:30;;;;;;;65.80;27.70;;;17.70;99.90;;;;;;5043652;28;20553;-66
2023/09/13 01:43:03;;;;;;;67.90;27.30;;;17.70;99.90;;;;;;5046580;28;20238;-66
2023/09/13 01:45:34;;;;;;;58.00;25.60;;;17.70;99.90;;;;;;5046845;28;20294;-65
2023/09/13 01:48:04;;;;;;;64.67;27.23;;;17.70;99.90;;;;;;5048675;28;20268;-65
2023/09/13 01:50:33;;;;;;;68.73;28.23;;;17.70;99.90;;;;;;5045716;28;20274;-66
2023/09/13 01:53:03;;;;;;;65.70;28.10;;;17.70;99.90;;;;;;5044027;28;20221;-65
2023/09/13 01:55:34;;;;;;;78.10;29.77;;;17.70;99.90;;;;;;5049908;28;20308;-66
2023/09/13 01:58:02;;;;;;;82.13;31.23;;;17.70;99.90;;;;;;5043598;28;20225;-66
2023/09/13 02:00:31;;;;;;;82.17;31.57;;;17.70;99.90;;;;;;5046029;28;20221;-66
2023/09/13 02:03:00;;;;;;;80.60;31.70;;;17.70;99.90;;;;;;5047419;28;20200;-66
2023/09/13 02:05:29;;;;;;;86.33;32.87;;;17.60;99.90;;;;;;5047423;28;20216;-66
2023/09/13 02:07:57;;;;;;;82.63;32.80;;;17.60;99.90;;;;;;5047891;28;20216;-66
2023/09/13 02:10:25;;;;;;;87.97;34.10;;;17.60;99.90;;;;;;5041525;28;20771;-66
2023/09/13 02:12:54;;;;;;;96.37;34.17;;;17.60;99.90;;;;;;5044836;28;20231;-66
2023/09/13 02:15:22;;;;;;;93.90;34.67;;;17.60;99.90;;;;;;5043133;28;20224;-66
2023/09/13 02:17:50;;;;;;;101.33;35.60;;;17.60;99.90;;;;;;5044770;28;20196;-66
2023/09/13 02:20:20;;;;;;;94.13;34.40;;;17.60;99.90;;;;;;5043369;28;20274;-66
2023/09/13 02:22:48;;;;;;;98.67;35.47;;;17.60;99.90;;;;;;5047335;28;20232;-66
2023/09/13 02:25:17;;;;;;;101.13;36.37;;;17.60;99.90;;;;;;5046137;28;20229;-66
2023/09/13 02:27:45;;;;;;;89.07;33.43;;;17.60;99.90;;;;;;5041719;28;21219;-66
2023/09/13 02:30:14;;;;;;;94.00;36.47;;;17.60;99.90;;;;;;5046604;28;20192;-65
2023/09/13 02:32:43;;;;;;;89.43;34.40;;;17.60;99.90;;;;;;5042868;28;20220;-67
2023/09/13 02:35:11;;;;;;;90.30;33.83;;;17.60;99.90;;;;;;5045293;28;20216;-66
2023/09/13 02:37:41;;;;;;;88.47;33.43;;;17.60;99.90;;;;;;5048125;28;20216;-66
2023/09/13 02:40:10;;;;;;;82.23;32.60;;;17.60;99.90;;;;;;5043296;28;20232;-66
2023/09/13 02:42:39;;;;;;;76.67;32.73;;;17.60;99.90;;;;;;5042608;28;20224;-66
2023/09/13 02:45:08;;;;;;;84.50;33.83;;;17.60;99.90;;;;;;5049643;28;20209;-65
2023/09/13 02:47:36;;;;;;;85.43;34.50;;;17.60;99.90;;;;;;5045591;28;21001;-66
2023/09/13 02:50:06;;;;;;;83.03;34.27;;;17.60;99.90;;;;;;5046449;28;20682;-66
2023/09/13 02:52:34;;;;;;;79.20;33.30;;;17.60;99.90;;;;;;5049787;28;20233;-66
2023/09/13 02:55:06;;;;;;;82.00;33.60;;;17.60;99.90;;;;;;5042581;28;20240;-66
2023/09/13 02:57:35;;;;;;;78.70;32.97;;;17.60;99.90;;;;;;5047453;28;20242;-66
2023/09/13 03:00:05;;;;;;;80.50;33.03;;;17.50;99.90;;;;;;5041978;28;20201;-65
2023/09/13 03:02:33;;;;;;;88.37;33.70;;;17.60;99.90;;;;;;5047143;28;20216;-66
2023/09/13 03:05:05;;;;;;;95.67;35.07;;;17.60;99.90;;;;;;5040961;28;20217;-66
2023/09/13 03:07:33;;;;;;;83.80;34.00;;;17.50;99.90;;;;;;5042406;28;20680;-66
2023/09/13 03:10:01;;;;;;;84.47;33.17;;;17.50;99.90;;;;;;5039815;28;20220;-66
2023/09/13 03:12:31;;;;;;;79.97;33.63;;;17.50;99.90;;;;;;5043504;28;20683;-65
2023/09/13 03:14:59;;;;;;;84.27;35.23;;;17.40;99.90;;;;;;5043238;28;20632;-66
2023/09/13 03:17:29;;;;;;;87.17;35.47;;;17.40;99.90;;;;;;5041893;28;20213;-66
2023/09/13 03:19:57;;;;;;;80.30;34.47;;;17.40;99.90;;;;;;5045043;28;20251;-66
2023/09/13 03:22:25;;;;;;;76.13;34.10;;;17.40;99.90;;;;;;5045309;28;20227;-66
2023/09/13 03:24:54;;;;;;;79.53;33.90;;;17.50;99.90;;;;;;5046545;28;20233;-66
2023/09/13 03:27:23;;;;;;;77.23;34.60;;;17.50;99.90;;;;;;5043728;28;20685;-66
2023/09/13 03:29:52;;;;;;;90.00;35.73;;;17.50;99.90;;;;;;5046334;28;20192;-67
2023/09/13 03:32:21;;;;;;;75.60;33.43;;;17.50;99.90;;;;;;5043601;28;20321;-66
2023/09/13 03:34:51;;;;;;;73.97;33.57;;;17.50;99.90;;;;;;5045825;28;20231;-66
2023/09/13 03:37:19;;;;;;;73.63;33.97;;;17.50;99.90;;;;;;5041121;28;20224;-66
2023/09/13 03:39:47;;;;;;;77.77;35.07;;;17.50;99.90;;;;;;5043786;28;20595;-66
2023/09/13 03:42:16;;;;;;;75.93;34.67;;;17.40;99.90;;;;;;5045216;28;20193;-66
2023/09/13 03:44:44;;;;;;;73.13;32.87;;;17.50;99.90;;;;;;5044856;28;20220;-66
2023/09/13 03:47:14;;;;;;;70.40;33.20;;;17.40;99.90;;;;;;5045218;28;20212;-66
2023/09/13 03:49:42;;;;;;;76.47;35.07;;;17.40;99.90;;;;;;5038156;28;20226;-66
2023/09/13 03:52:10;;;;;;;74.03;34.33;;;17.40;99.90;;;;;;5043621;28;20239;-66
2023/09/13 03:54:39;;;;;;;73.97;34.20;;;17.40;99.90;;;;;;5043789;28;20224;-66
2023/09/13 03:57:07;;;;;;;73.77;33.57;;;17.40;99.90;;;;;;5041567;28;20197;-65
2023/09/13 03:59:35;;;;;;;72.97;34.60;;;17.50;99.90;;;;;;5046664;28;20188;-66
2023/09/13 04:02:04;;;;;;;76.83;33.20;;;17.50;99.90;;;;;;5042493;28;20335;-66
2023/09/13 04:04:33;;;;;;;67.80;32.40;;;17.50;99.90;;;;;;5044933;28;21222;-66
2023/09/13 04:07:02;;;;;;;67.77;31.73;;;17.50;99.90;;;;;;5040719;28;20307;-66
2023/09/13 04:09:30;;;;;;;75.80;33.60;;;17.50;99.90;;;;;;5044059;28;20232;-66
2023/09/13 04:11:58;;;;;;;79.60;33.70;;;17.60;99.90;;;;;;5042576;28;20211;-67
2023/09/13 04:14:26;;;;;;;76.50;34.13;;;17.50;99.90;;;;;;5020852;28;20230;-66
2023/09/13 04:16:55;;;;;;;77.63;33.17;;;17.50;99.90;;;;;;5054627;28;20308;-66
2023/09/13 04:19:23;;;;;;;70.47;33.43;;;17.50;99.90;;;;;;5021842;28;20225;-65
2023/09/13 04:21:53;;;;;;;73.20;33.90;;;17.50;99.90;;;;;;5021158;28;20324;-66
2023/09/13 04:24:22;;;;;;;73.63;34.77;;;17.60;99.90;;;;;;5023955;28;20225;-67
2023/09/13 04:26:50;;;;;;;82.37;36.43;;;17.60;99.90;;;;;;5025616;28;20193;-66
2023/09/13 04:29:18;;;;;;;83.53;37.47;;;17.60;99.90;;;;;;5022697;28;20224;-66
2023/09/13 04:31:46;;;;;;;85.57;36.43;;;17.60;99.90;;;;;;5022660;28;20221;-66
2023/09/13 04:34:17;;;;;;;84.37;36.23;;;17.70;99.90;;;;;;5019871;28;20314;-66
2023/09/13 04:36:46;;;;;;;84.90;36.00;;;17.70;99.90;;;;;;5019467;28;20233;-66
2023/09/13 04:39:16;;;;;;;87.93;38.33;;;17.70;99.90;;;;;;5027627;28;20194;-66
2023/09/13 04:41:44;;;;;;;90.40;37.57;;;17.80;99.90;;;;;;5038209;28;20193;-66
2023/09/13 04:44:12;;;;;;;96.03;40.20;;;17.80;99.90;;;;;;5022793;28;20225;-67
2023/09/13 04:46:40;;;;;;;96.27;40.10;;;17.80;99.90;;;;;;5022325;28;20700;-66
2023/09/13 04:49:09;;;;;;;98.83;40.37;;;17.80;99.90;;;;;;5020771;28;20245;-66
2023/09/13 04:51:37;;;;;;;106.13;42.97;;;17.80;99.90;;;;;;5021251;28;20316;-66
2023/09/13 04:54:06;;;;;;;90.67;41.90;;;17.80;99.90;;;;;;5026449;28;20197;-66
2023/09/13 04:56:36;;;;;;;101.27;42.23;;;17.80;99.90;;;;;;5021119;28;20727;-66
2023/09/13 04:59:04;;;;;;;101.37;40.27;;;17.80;99.90;;;;;;5025042;28;20221;-67
2023/09/13 05:01:32;;;;;;;91.93;40.23;;;17.80;99.90;;;;;;5025948;28;20210;-66
2023/09/13 05:04:01;;;;;;;98.97;41.40;;;17.80;99.90;;;;;;5029891;28;20238;-66
2023/09/13 05:06:29;;;;;;;92.33;40.00;;;17.80;99.90;;;;;;5025599;28;20245;-66
2023/09/13 05:08:58;;;;;;;89.67;39.43;;;17.90;99.90;;;;;;5026894;28;20578;-67
2023/09/13 05:11:26;;;;;;;83.57;39.27;;;17.90;99.90;;;;;;5026928;28;20221;-66
2023/09/13 05:16:47;;;;;;;80.70;37.17;;;17.90;99.90;;;;;;5067401;27;20577;-66
2023/09/13 05:19:17;;;;;;;80.13;37.90;;;17.90;99.90;;;;;;5054953;28;20665;-66
2023/09/13 05:21:46;;;;;;;77.87;36.37;;;17.90;99.90;;;;;;5052976;28;20220;-66
2023/09/13 05:24:14;;;;;;;76.37;36.93;;;17.90;99.90;;;;;;5046295;28;20192;-66
2023/09/13 05:26:43;;;;;;;81.97;37.43;;;17.90;99.90;;;;;;5049596;28;20206;-66
2023/09/13 05:29:11;;;;;;;83.63;37.30;;;17.90;99.90;;;;;;5044420;28;20614;-67
2023/09/13 05:31:40;;;;;;;76.03;34.93;;;17.90;99.90;;;;;;5051436;28;20227;-67
2023/09/13 05:34:10;;;;;;;71.27;33.47;;;17.80;99.90;;;;;;5049575;28;20228;-67
2023/09/13 05:36:39;;;;;;;68.40;33.93;;;17.80;99.90;;;;;;5052358;28;20232;-66
2023/09/13 05:39:07;;;;;;;64.87;33.03;;;17.80;99.90;;;;;;5044262;28;20202;-64
2023/09/13 05:41:37;;;;;;;73.33;32.83;;;17.80;99.90;;;;;;5045257;28;20209;-67
2023/09/13 05:44:10;;;;;;;65.97;33.07;;;17.70;99.90;;;;;;5052126;28;20247;-67
2023/09/13 05:46:38;;;;;;;73.80;31.73;;;17.70;99.90;;;;;;5050239;28;20229;-66
2023/09/13 05:49:07;;;;;;;67.33;32.13;;;17.80;99.90;;;;;;5048403;28;20286;-67
2023/09/13 05:51:36;;;;;;;64.37;31.53;;;17.80;99.90;;;;;;5049663;28;20232;-66
2023/09/13 05:54:05;;;;;;;60.37;31.63;;;17.80;99.90;;;;;;5052753;28;20192;-66
2023/09/13 05:56:33;;;;;;;61.50;29.47;;;17.80;99.90;;;;;;5047207;28;20239;-66
2023/09/13 05:59:01;;;;;;;71.63;30.77;;;17.90;99.90;;;;;;5051332;28;20217;-66
2023/09/13 06:01:30;;;;;;;52.10;28.87;;;17.90;99.90;;;;;;5048121;28;20735;-66
2023/09/13 06:03:58;;;;;;;53.43;28.80;;;18.00;99.90;;;;;;5048342;28;20946;-67
2023/09/13 06:06:27;;;;;;;51.00;26.23;;;18.00;99.90;;;;;;5051037;28;20718;-67
2023/09/13 06:08:57;;;;;;;41.93;24.63;;;18.00;99.90;;;;;;5047675;28;20193;-67
2023/09/13 06:11:26;;;;;;;45.60;23.73;;;17.90;99.90;;;;;;5049613;28;20213;-66
2023/09/13 06:13:54;;;;;;;47.20;24.27;;;18.00;99.90;;;;;;5045461;28;20683;-67
2023/09/13 06:16:23;;;;;;;44.60;23.70;;;18.00;99.90;;;;;;5052631;28;20564;-66
2023/09/13 06:18:53;;;;;;;42.10;22.73;;;18.00;99.90;;;;;;5047575;28;20220;-66
2023/09/13 06:21:21;;;;;;;43.57;20.43;;;18.10;99.90;;;;;;5051416;28;20200;-66
2023/09/13 06:23:49;;;;;;;34.40;19.50;;;18.10;99.90;;;;;;5049920;28;20192;-66
2023/09/13 06:26:20;;;;;;;38.20;19.50;;;18.10;99.90;;;;;;5041455;28;20217;-66
2023/09/13 06:28:48;;;;;;;34.03;18.67;;;18.10;99.90;;;;;;5037095;28;20255;-66
2023/09/13 06:31:17;;;;;;;37.77;17.30;;;18.10;99.90;;;;;;5029143;28;20312;-66
2023/09/13 06:34:00;;;;;;;32.13;17.00;;;18.20;99.90;;;;;;5032175;28;20305;-66
2023/09/13 06:36:32;;;;;;;31.40;16.67;;;18.10;99.90;;;;;;5033485;28;20229;-66
2023/09/13 06:39:02;;;;;;;28.53;15.73;;;18.10;99.90;;;;;;5042517;28;20715;-65
2023/09/13 06:41:32;;;;;;;26.93;14.70;;;18.20;99.90;;;;;;5039468;28;20220;-66
2023/09/13 06:44:03;;;;;;;24.97;13.67;;;18.20;99.90;;;;;;5037181;28;20256;-66
2023/09/13 06:46:37;;;;;;;27.60;13.40;;;18.20;99.90;;;;;;5035302;28;20221;-66
2023/09/13 06:49:08;;;;;;;22.30;11.43;;;18.30;99.90;;;;;;5036879;28;20213;-66
2023/09/13 06:51:38;;;;;;;19.00;10.07;;;18.30;99.90;;;;;;5036119;28;20229;-65
2023/09/13 06:54:09;;;;;;;18.93;9.63;;;18.30;99.90;;;;;;5035332;28;20204;-66
2023/09/13 06:56:43;;;;;;;18.83;8.87;;;18.50;99.90;;;;;;5039082;28;20205;-66
2023/09/13 06:59:16;;;;;;;15.53;8.50;;;18.50;99.90;;;;;;5035018;28;20240;-66
2023/09/13 07:01:45;;;;;;;25.53;8.83;;;18.60;99.90;;;;;;5034570;28;20278;-67
2023/09/13 07:04:33;;;;;;;22.43;8.07;;;18.60;99.90;;;;;;5036846;28;20956;-65
2023/09/13 07:07:11;;;;;;;14.70;8.10;;;18.60;99.90;;;;;;5035923;28;20216;-65
2023/09/13 07:09:41;;;;;;;21.27;8.00;;;18.70;99.90;;;;;;5036388;28;20221;-67
2023/09/13 07:12:11;;;;;;;18.73;7.43;;;19.00;99.90;;;;;;5032675;28;20205;-65
2023/09/13 07:14:39;;;;;;;17.70;7.30;;;19.10;99.90;;;;;;5037199;28;21726;-65
2023/09/13 07:17:08;;;;;;;11.67;6.17;;;19.20;99.90;;;;;;5031405;28;20241;-66
2023/09/13 07:19:37;;;;;;;15.60;6.37;;;19.20;99.90;;;;;;5037253;28;20225;-67
2023/09/13 07:22:05;;;;;;;17.10;6.17;;;19.20;99.90;;;;;;5039193;28;20221;-67
2023/09/13 07:24:34;;;;;;;19.97;6.00;;;19.20;99.90;;;;;;5035713;28;20225;-66
2023/09/13 07:27:02;;;;;;;12.80;5.07;;;19.10;99.90;;;;;;5035072;28;20186;-64
2023/09/13 07:29:32;;;;;;;13.80;5.23;;;19.10;99.90;;;;;;5037455;28;20184;-68
2023/09/13 07:32:02;;;;;;;13.37;4.87;;;19.10;99.90;;;;;;5035509;28;20319;-66
2023/09/13 07:34:31;;;;;;;11.83;4.60;;;19.20;99.90;;;;;;5038166;28;20221;-67
2023/09/13 07:37:00;;;;;;;16.73;4.57;;;19.40;99.90;;;;;;5033931;28;20237;-67
2023/09/13 07:39:28;;;;;;;16.27;4.47;;;19.50;99.90;;;;;;5034131;28;20746;-67
2023/09/13 07:41:57;;;;;;;10.37;4.10;;;19.60;99.90;;;;;;5035751;28;20243;-66
2023/09/13 07:44:25;;;;;;;13.50;4.17;;;19.50;99.90;;;;;;5036215;28;20627;-67
2023/09/13 07:46:55;;;;;;;15.87;3.73;;;19.50;99.90;;;;;;5050013;28;20590;-67
2023/09/13 07:49:24;;;;;;;19.27;3.90;;;19.60;99.90;;;;;;5057841;28;20262;-67
2023/09/13 07:51:52;;;;;;;17.17;3.80;;;19.60;99.90;;;;;;5056098;28;20655;-67
2023/09/13 07:54:20;;;;;;;11.13;4.13;;;19.60;99.90;;;;;;5057444;28;20196;-66
2023/09/13 07:56:49;;;;;;;19.30;4.43;;;19.70;99.90;;;;;;5051989;28;20203;-67
2023/09/13 07:59:18;;;;;;;15.10;5.03;;;19.70;99.90;;;;;;5052037;28;20247;-67
2023/09/13 08:01:48;;;;;;;17.30;5.90;;;19.80;99.90;;;;;;5053719;28;20233;-67
2023/09/13 08:04:18;;;;;;;15.53;7.23;;;19.90;99.90;;;;;;5053690;28;20308;-67
2023/09/13 08:06:47;;;;;;;25.03;7.87;;;19.90;99.90;;;;;;5050981;28;20217;-67
2023/09/13 08:09:16;;;;;;;18.83;8.23;;;19.90;99.90;;;;;;5055225;28;20660;-67
2023/09/13 08:11:46;;;;;;;18.47;7.97;;;19.90;99.90;;;;;;5057626;28;20218;-66
2023/09/13 08:14:15;;;;;;;19.60;9.70;;;19.80;99.90;;;;;;5055795;28;20224;-66
2023/09/13 08:16:43;;;;;;;24.60;11.23;;;19.80;99.90;;;;;;5051580;28;21047;-66
2023/09/13 08:19:12;;;;;;;30.13;12.43;;;19.90;99.90;;;;;;5056031;28;20251;-67
2023/09/13 08:21:42;;;;;;;24.40;11.50;;;19.80;99.90;;;;;;5054134;28;20220;-67
2023/09/13 08:24:10;;;;;;;23.27;9.53;;;19.80;99.90;;;;;;5049350;28;20234;-66
2023/09/13 08:26:39;;;;;;;20.50;9.10;;;19.90;99.90;;;;;;5057999;28;20188;-67
2023/09/13 08:29:08;;;;;;;18.90;7.80;;;19.90;99.90;;;;;;5055652;28;20263;-66
2023/09/13 08:31:36;;;;;;;18.33;6.63;;;19.90;99.90;;;;;;5054167;28;20315;-66
2023/09/13 08:34:04;;;;;;;15.27;6.30;;;20.00;99.90;;;;;;5070852;28;20220;-67
2023/09/13 08:36:33;;;;;;;15.93;5.13;;;20.20;99.90;;;;;;5054702;28;20240;-66
2023/09/13 08:39:05;;;;;;;14.30;4.93;;;20.50;99.90;;;;;;5053812;28;20200;-66
2023/09/13 08:41:33;;;;;;;14.13;3.67;;;20.60;99.90;;;;;;5037820;28;20228;-66
2023/09/13 08:44:05;;;;;;;13.67;3.33;;;20.50;99.90;;;;;;5034069;28;20687;-66
2023/09/13 08:46:35;;;;;;;18.50;3.77;;;20.50;99.90;;;;;;5033608;28;20320;-66
2023/09/13 08:49:06;;;;;;;10.17;3.00;;;20.70;99.90;;;;;;5033614;28;20227;-66
2023/09/13 08:51:35;;;;;;;8.60;2.53;;;21.10;99.90;;;;;;5028304;28;20223;-65
2023/09/13 08:54:06;;;;;;;6.30;2.50;;;21.30;99.90;;;;;;5032425;28;20193;-65
2023/09/13 08:56:41;;;;;;;10.07;2.80;;;21.50;99.90;;;;;;5036478;28;20251;-66
2023/09/13 08:59:10;;;;;;;13.30;3.20;;;21.50;99.90;;;;;;5035252;28;20225;-67
2023/09/13 09:01:39;;;;;;;12.77;2.63;;;21.70;99.90;;;;;;5033024;28;20273;-67
2023/09/13 09:04:09;;;;;;;11.13;2.30;;;21.70;99.90;;;;;;5033941;28;20217;-66
2023/09/13 09:06:39;;;;;;;8.23;2.40;;;21.70;99.90;;;;;;5040019;28;20233;-66
2023/09/13 09:09:09;;;;;;;10.87;2.50;;;21.40;99.90;;;;;;5032629;28;20187;-65
2023/09/13 09:11:39;;;;;;;9.57;2.90;;;21.20;99.90;;;;;;5034588;28;20282;-67
2023/09/13 09:14:09;;;;;;;10.23;2.83;;;21.00;99.90;;;;;;5021804;28;20234;-65
2023/09/13 09:16:41;;;;;;;12.20;3.07;;;20.80;99.90;;;;;;5036156;28;20601;-67
2023/09/13 09:19:09;;;;;;;8.97;2.40;;;20.60;99.90;;;;;;5027779;28;20239;-67
2023/09/13 09:21:39;;;;;;;9.50;2.57;;;20.50;99.90;;;;;;5031399;28;20218;-66
2023/09/13 09:24:09;;;;;;;11.23;2.43;;;20.60;99.90;;;;;;5030644;28;20185;-64
2023/09/13 09:26:37;;;;;;;9.30;2.80;;;20.70;99.90;;;;;;5030215;28;20194;-66
2023/09/13 09:29:11;;;;;;;8.17;2.80;;;20.90;99.90;;;;;;5040512;28;20702;-67
2023/09/13 09:31:45;;;;;;;9.33;2.97;;;21.00;99.90;;;;;;5046779;28;20224;-67
2023/09/13 09:34:15;;;;;;;11.87;3.30;;;21.00;99.90;;;;;;5050389;28;20754;-66
2023/09/13 09:36:46;;;;;;;6.03;3.23;;;20.90;99.90;;;;;;5044582;28;20317;-66
2023/09/13 09:39:16;;;;;;;10.03;3.23;;;20.60;99.90;;;;;;5048992;28;20200;-66
2023/09/13 09:41:45;;;;;;;8.37;3.20;;;20.40;99.90;;;;;;5050746;28;20184;-66
2023/09/13 09:44:13;;;;;;;7.10;3.13;;;20.40;99.90;;;;;;5044760;28;20409;-66
2023/09/13 09:46:42;;;;;;;8.13;2.83;;;20.50;99.90;;;;;;5047713;28;20222;-66
2023/09/13 09:49:12;;;;;;;5.57;2.87;;;20.70;99.90;;;;;;5049697;28;20453;-67
2023/09/13 09:51:40;;;;;;;3.20;2.80;;;20.80;99.90;;;;;;5045414;28;20587;-67
2023/09/13 09:54:08;;;;;;;4.80;2.90;;;21.00;99.90;;;;;;5049995;28;20202;-65
2023/09/13 09:56:38;;;;;;;4.10;2.70;;;21.00;99.90;;;;;;5050664;28;20198;-67
2023/09/13 09:59:06;;;;;;;2.97;2.77;;;21.00;99.90;;;;;;5049577;28;20720;-66
2023/09/13 10:01:38;;;;;;;2.70;2.50;;;21.00;99.90;;;;;;5049107;28;20682;-67
2023/09/13 10:04:10;;;;;;;3.70;2.60;;;20.90;99.90;;;;;;5055385;28;20222;-66
2023/09/13 10:06:56;;;;;;;3.03;2.43;;;20.70;99.90;;;;;;5057248;28;20213;-66
2023/09/13 10:09:25;;;;;;;2.63;2.43;;;20.70;99.90;;;;;;5058809;28;20221;-66
2023/09/13 10:12:02;;;;;;;5.93;2.40;;;20.70;99.90;;;;;;5056416;28;20243;-66
2023/09/13 10:14:31;;;;;;;2.37;2.20;;;20.70;99.90;;;;;;5056585;28;20217;-66
2023/09/13 10:17:03;;;;;;;4.83;2.30;;;20.70;99.90;;;;;;5045082;28;20683;-66
2023/09/13 10:19:32;;;;;;;2.57;2.33;;;20.80;99.90;;;;;;5057440;28;20746;-66
2023/09/13 10:22:01;;;;;;;1.97;1.87;;;20.90;99.90;;;;;;5059346;28;20220;-67
2023/09/13 10:24:38;;;;;;;2.10;1.90;;;20.90;99.90;;;;;;5055478;28;20311;-61
2023/09/13 10:27:09;;;;;;;3.37;2.57;;;21.10;99.90;;;;;;5048457;28;20549;-64
2023/09/13 10:29:41;;;;;;;3.87;2.27;;;21.20;99.90;;;;;;5052088;28;20200;-65
2023/09/13 10:32:14;;;;;;;5.57;2.40;;;21.10;99.90;;;;;;5050087;28;20227;-65
2023/09/13 10:34:48;;;;;;;3.97;2.40;;;21.20;99.90;;;;;;5054407;28;20727;-65
2023/09/13 10:37:29;;;;;;;2.37;2.17;;;21.30;99.90;;;;;;5056210;28;20219;-65
2023/09/13 10:40:10;;;;;;;4.23;2.53;;;21.20;99.90;;;;;;5052480;28;20221;-64
2023/09/13 10:42:41;;;;;;;2.40;2.20;;;21.40;99.90;;;;;;5057760;28;20226;-64
2023/09/13 10:45:14;;;;;;;3.13;1.93;;;21.40;99.90;;;;;;5059151;28;20227;-64
2023/09/13 10:47:43;;;;;;;3.17;2.60;;;21.50;99.90;;;;;;5056957;28;20215;-64
2023/09/13 10:50:12;;;;;;;2.10;1.90;;;21.50;99.90;;;;;;5056068;28;20222;-65
2023/09/13 10:52:41;;;;;;;2.47;1.97;;;21.60;99.90;;;;;;5053075;28;20222;-65
2023/09/13 10:55:11;;;;;;;2.43;2.17;;;21.90;99.90;;;;;;5057871;28;20232;-64
2023/09/13 10:57:42;;;;;;;2.63;1.80;;;22.30;99.90;;;;;;5058057;28;20238;-64
2023/09/13 11:00:13;;;;;;;2.30;1.90;;;22.50;99.90;;;;;;5055074;28;20189;-63
2023/09/13 11:02:43;;;;;;;2.10;2.00;;;22.80;99.90;;;;;;5054785;28;20654;-64
2023/09/13 11:05:13;;;;;;;3.07;1.80;;;23.00;99.90;;;;;;5057936;28;20248;-64
2023/09/13 11:07:43;;;;;;;1.80;1.70;;;23.40;99.90;;;;;;5061410;28;20721;-64
2023/09/13 11:10:14;;;;;;;2.70;1.73;;;23.70;99.90;;;;;;5058757;28;20282;-64
2023/09/13 11:12:48;;;;;;;3.97;1.80;;;23.80;99.90;;;;;;5062412;28;20414;-65
2023/09/13 11:15:21;;;;;;;2.43;1.30;;;23.80;99.90;;;;;;5059694;28;20309;-65
2023/09/13 11:17:54;;;;;;;1.03;1.00;;;23.60;99.90;;;;;;5051394;28;20199;-64
2023/09/13 11:20:28;;;;;;;1.10;1.10;;;23.20;99.90;;;;;;5047430;28;20225;-64
2023/09/13 11:23:08;;;;;;;1.37;1.27;;;23.00;99.90;;;;;;5055709;28;20227;-65
2023/09/13 11:26:02;;;;;;;1.30;1.20;;;23.10;99.90;;;;;;5054580;28;20231;-64
2023/09/13 11:28:44;;;;;;;2.60;1.20;;;23.00;99.90;;;;;;5055900;28;20228;-64
2023/09/13 11:31:21;;;;;;;1.00;1.00;;;22.90;99.90;;;;;;5050996;28;20233;-64
2023/09/13 11:33:56;;;;;;;1.00;1.00;;;22.80;99.90;;;;;;5038873;28;20692;-64
2023/09/13 11:36:26;;;;;;;1.00;1.00;;;23.00;99.90;;;;;;5036745;28;20229;-65
2023/09/13 11:39:00;;;;;;;1.00;1.00;;;23.20;99.90;;;;;;5033451;28;20210;-64
2023/09/13 11:41:28;;;;;;;2.93;1.17;;;23.40;99.90;;;;;;5036331;28;20335;-65
2023/09/13 11:44:01;;;;;;;0.90;0.90;;;23.70;99.90;;;;;;5047236;28;20232;-64
2023/09/13 11:46:34;;;;;;;1.00;1.00;;;23.90;99.90;;;;;;5058334;28;20236;-65
2023/09/13 11:49:02;;;;;;;2.83;1.07;;;24.10;99.90;;;;;;5053430;28;20228;-65
2023/09/13 11:51:33;;;;;;;1.00;1.00;;;23.80;99.90;;;;;;5057192;28;20224;-63
2023/09/13 11:54:14;;;;;;;1.00;1.00;;;23.80;99.90;;;;;;5053304;28;20559;-65
2023/09/13 11:56:44;;;;;;;2.83;1.20;;;23.90;99.90;;;;;;5056149;28;20184;-65
2023/09/13 11:59:18;;;;;;;0.90;0.90;;;23.80;99.90;;;;;;5053750;28;20217;-65
2023/09/13 12:01:50;;;;;;;2.30;0.93;;;23.60;99.90;;;;;;5041747;28;20235;-64
2023/09/13 12:04:25;;;;;;;1.50;1.00;;;23.70;99.90;;;;;;5054662;28;20748;-65
2023/09/13 12:06:57;;;;;;;2.33;1.00;;;24.10;99.90;;;;;;5048759;28;20208;-64
2023/09/13 12:09:29;;;;;;;0.93;0.93;;;24.30;99.90;;;;;;5043878;28;20290;-64
2023/09/13 12:12:02;;;;;;;1.10;1.10;;;24.50;99.90;;;;;;5047682;28;20193;-64
2023/09/13 12:14:39;;;;;;;0.87;0.87;;;24.60;99.90;;;;;;5049173;28;20287;-65
2023/09/13 12:17:11;;;;;;;1.27;1.27;;;24.60;99.90;;;;;;5049974;28;20225;-65
2023/09/13 12:19:39;;;;;;;0.73;0.73;;;24.90;99.90;;;;;;5047199;28;20224;-65
2023/09/13 12:22:13;;;;;;;2.27;0.97;;;25.00;99.90;;;;;;5044008;28;20316;-65
2023/09/13 12:24:51;;;;;;;0.80;0.80;;;25.00;99.90;;;;;;5050610;28;20267;-64
2023/09/13 12:27:23;;;;;;;0.90;0.80;;;24.60;99.90;;;;;;5046622;28;20279;-64
2023/09/13 12:29:53;;;;;;;1.27;1.10;;;24.20;99.90;;;;;;5049728;28;20176;-65
2023/09/13 12:32:22;;;;;;;1.30;1.20;;;23.80;99.90;;;;;;5043562;28;20315;-64
2023/09/13 12:34:50;;;;;;;2.10;1.20;;;23.70;99.90;;;;;;5051597;28;20555;-64
2023/09/13 12:37:19;;;;;;;1.70;1.20;;;24.00;99.90;;;;;;5054100;28;20572;-64
2023/09/13 12:39:47;;;;;;;1.40;1.30;;;24.50;99.90;;;;;;5046617;28;21047;-65
2023/09/13 12:42:16;;;;;;;1.13;1.13;;;24.70;99.90;;;;;;5045741;28;20204;-65
2023/09/13 12:44:46;;;;;;;2.17;1.37;;;25.00;99.90;;;;;;5058314;28;20230;-64
2023/09/13 12:47:18;;;;;;;1.00;0.80;;;25.20;99.90;;;;;;5065410;28;20675;-64
2023/09/13 12:49:47;;;;;;;1.20;1.10;;;25.30;99.90;;;;;;5047935;28;20224;-64
2023/09/13 12:52:16;;;;;;;0.90;0.90;;;25.30;99.90;;;;;;5051499;28;20220;-65